Time;durP1;ratioP1;P1;durP2;ratioP2;P2;SDS_P1;SDS_P2;PMS_P1;PMS_P2;Temp;Humidity;BMP_temperature;BMP_pressure;BME280_temperature;BME280_humidity;BME280_pressure;Samples;Min_cycle;Max_cycle;Signal;HPM_P1;HPM_P2
2022/03/17 00:00:36;;;;;;;15.48;12.90;;;12.40;96.70;;;;;;4970369;28;20141;-77
2022/03/17 00:03:05;;;;;;;15.93;12.73;;;12.40;96.70;;;;;;4989408;28;20046;-77
2022/03/17 00:05:33;;;;;;;16.15;12.40;;;12.20;96.70;;;;;;4987567;28;20049;-77
2022/03/17 00:08:01;;;;;;;16.92;12.48;;;12.10;96.70;;;;;;5021906;28;20074;-77
2022/03/17 00:10:29;;;;;;;19.77;12.63;;;12.10;96.70;;;;;;4985150;28;20044;-77
2022/03/17 00:12:57;;;;;;;16.83;12.55;;;12.00;96.70;;;;;;5005805;28;20050;-77
2022/03/17 00:15:25;;;;;;;16.27;12.77;;;12.00;96.70;;;;;;4986175;28;20125;-77
2022/03/17 00:17:55;;;;;;;14.15;12.23;;;12.00;96.70;;;;;;5005231;28;20377;-77
2022/03/17 00:20:24;;;;;;;15.57;11.75;;;12.00;96.70;;;;;;4969675;28;20053;-77
2022/03/17 00:22:52;;;;;;;15.98;13.10;;;12.00;96.70;;;;;;5006056;28;20060;-77
2022/03/17 00:25:21;;;;;;;18.38;13.32;;;11.90;96.70;;;;;;4969652;28;20456;-76
2022/03/17 00:27:50;;;;;;;16.55;11.88;;;11.90;96.70;;;;;;5006525;28;20050;-77
2022/03/17 00:30:18;;;;;;;16.08;12.65;;;12.00;96.70;;;;;;4968472;28;20058;-77
2022/03/17 00:32:47;;;;;;;17.17;12.95;;;12.10;96.70;;;;;;5004380;28;20141;-77
2022/03/17 00:38:05;;;;;;;17.38;13.00;;;12.10;96.70;;;;;;4989261;28;20101;-77
2022/03/17 00:40:33;;;;;;;18.95;13.68;;;12.10;96.70;;;;;;4988360;28;20049;-76
2022/03/17 00:43:02;;;;;;;20.10;14.15;;;12.00;96.70;;;;;;4968972;28;20249;-75
2022/03/17 00:45:31;;;;;;;17.38;14.05;;;12.00;96.70;;;;;;4971060;28;20070;-76
2022/03/17 00:47:59;;;;;;;19.50;13.18;;;12.00;96.70;;;;;;4972926;28;20105;-75
2022/03/17 00:50:29;;;;;;;22.23;14.45;;;11.90;96.70;;;;;;5004172;28;20189;-77
2022/03/17 00:53:00;;;;;;;21.98;14.68;;;11.90;96.70;;;;;;4985296;28;20073;-76
2022/03/17 00:55:28;;;;;;;17.38;14.30;;;11.90;96.70;;;;;;4972971;28;20050;-76
2022/03/17 00:57:57;;;;;;;18.10;14.07;;;11.80;96.70;;;;;;4976158;28;20046;-77
2022/03/17 01:00:25;;;;;;;20.40;14.57;;;11.70;96.70;;;;;;4987336;28;20046;-77
2022/03/17 01:02:55;;;;;;;18.48;14.35;;;11.70;96.70;;;;;;4985292;28;20038;-76
2022/03/17 01:05:25;;;;;;;16.73;13.85;;;11.80;96.70;;;;;;5010737;28;20069;-82
2022/03/17 01:07:55;;;;;;;19.00;15.25;;;11.90;96.70;;;;;;4973934;28;20069;-81
2022/03/17 01:10:24;;;;;;;19.75;15.55;;;11.90;96.70;;;;;;5005487;28;20050;-83
2022/03/17 01:12:52;;;;;;;17.63;14.43;;;11.90;96.70;;;;;;4973590;28;20725;-82
2022/03/17 01:15:21;;;;;;;16.40;13.55;;;11.90;96.70;;;;;;4989047;28;20635;-83
2022/03/17 01:17:50;;;;;;;20.58;15.75;;;11.90;96.70;;;;;;4981428;28;20097;-83
2022/03/17 01:20:18;;;;;;;23.17;15.35;;;11.90;96.70;;;;;;4976714;28;20057;-82
2022/03/17 01:22:46;;;;;;;18.38;14.48;;;11.90;96.70;;;;;;4976472;28;20046;-83
2022/03/17 01:25:16;;;;;;;19.17;15.00;;;11.90;96.70;;;;;;4990576;28;20046;-83
2022/03/17 01:27:44;;;;;;;17.45;13.93;;;11.90;96.70;;;;;;4973393;28;20057;-81
2022/03/17 01:30:12;;;;;;;18.23;13.40;;;11.80;96.70;;;;;;4974328;28;20054;-76
2022/03/17 01:32:41;;;;;;;16.98;14.18;;;11.80;96.70;;;;;;5000823;28;20109;-76
2022/03/17 01:35:09;;;;;;;16.65;12.75;;;11.90;96.70;;;;;;4985118;28;20046;-76
2022/03/17 01:37:38;;;;;;;17.20;12.38;;;11.90;96.70;;;;;;4984614;28;20132;-76
2022/03/17 01:40:07;;;;;;;15.55;12.95;;;11.80;96.70;;;;;;4970606;28;20049;-76
2022/03/17 01:42:38;;;;;;;15.88;12.57;;;11.80;96.70;;;;;;5000597;28;20044;-77
2022/03/17 01:45:07;;;;;;;14.32;12.15;;;11.80;96.70;;;;;;4968872;28;20047;-77
2022/03/17 01:47:37;;;;;;;13.70;11.13;;;11.70;96.70;;;;;;5000605;28;20568;-77
2022/03/17 01:50:09;;;;;;;13.52;10.13;;;11.70;96.70;;;;;;4968914;28;20096;-77
2022/03/17 01:52:38;;;;;;;14.45;10.02;;;11.60;96.70;;;;;;5001623;28;20061;-78
2022/03/17 01:55:09;;;;;;;10.35;7.40;;;11.60;96.70;;;;;;4987188;28;20058;-77
2022/03/17 01:57:39;;;;;;;9.52;7.75;;;11.60;96.70;;;;;;5001507;28;20065;-77
2022/03/17 02:00:13;;;;;;;8.35;6.20;;;11.50;96.70;;;;;;5003150;28;20104;-77
2022/03/17 02:02:42;;;;;;;8.88;6.50;;;11.50;96.70;;;;;;5003689;28;20049;-77
2022/03/17 02:05:11;;;;;;;8.52;6.30;;;11.40;96.70;;;;;;4969686;28;20520;-77
2022/03/17 02:07:41;;;;;;;10.45;6.35;;;11.40;96.70;;;;;;4985851;28;20050;-77
2022/03/17 02:10:09;;;;;;;8.48;5.90;;;11.30;96.70;;;;;;4984243;28;20050;-77
2022/03/17 02:15:27;;;;;;;11.57;5.78;;;11.30;96.70;;;;;;4983472;28;20050;-77
2022/03/17 02:17:56;;;;;;;6.72;6.00;;;11.30;96.70;;;;;;4987690;28;20133;-76
2022/03/17 02:20:25;;;;;;;7.97;6.32;;;11.30;96.70;;;;;;4968729;28;20054;-77
2022/03/17 02:25:33;;;;;;;7.75;6.45;;;11.30;96.70;;;;;;4986381;28;20034;-77
2022/03/17 02:25:49;;;;;;;10.88;7.07;;;11.30;96.70;;;;;;4999008;28;20128;-77
2022/03/17 02:28:18;;;;;;;9.80;7.15;;;11.30;96.70;;;;;;4988492;28;20411;-77
2022/03/17 02:30:46;;;;;;;9.50;7.50;;;11.30;96.70;;;;;;4980010;28;20073;-78
2022/03/17 02:33:18;;;;;;;11.35;8.18;;;11.30;96.70;;;;;;4988782;28;20053;-77
2022/03/17 02:35:49;;;;;;;13.68;8.10;;;11.20;96.70;;;;;;4984166;28;20109;-77
2022/03/17 02:38:18;;;;;;;10.93;8.18;;;11.10;96.70;;;;;;4990591;28;20077;-77
2022/03/17 02:40:51;;;;;;;10.27;8.38;;;11.20;96.70;;;;;;4999397;28;20125;-77
2022/03/17 02:43:20;;;;;;;14.55;8.55;;;11.20;96.70;;;;;;4967425;28;20054;-77
2022/03/17 02:45:48;;;;;;;11.55;8.35;;;11.10;96.70;;;;;;4997631;28;20041;-78
2022/03/17 02:48:17;;;;;;;13.00;9.07;;;11.10;96.70;;;;;;4968228;28;20084;-77
2022/03/17 02:50:46;;;;;;;14.45;8.95;;;11.10;96.70;;;;;;4969698;28;20108;-77
2022/03/17 02:53:15;;;;;;;13.80;8.65;;;11.10;96.70;;;;;;4986307;28;20085;-77
2022/03/17 02:55:44;;;;;;;13.50;8.57;;;11.10;96.70;;;;;;5000620;28;20825;-77
2022/03/17 02:58:14;;;;;;;10.93;8.75;;;11.10;96.70;;;;;;4965953;28;20054;-77
2022/03/17 03:00:43;;;;;;;10.30;8.65;;;11.00;96.70;;;;;;4968999;28;20069;-77
2022/03/17 03:03:16;;;;;;;13.35;8.75;;;10.90;96.70;;;;;;4975668;28;20401;-77
2022/03/17 03:05:46;;;;;;;13.18;8.68;;;11.00;96.70;;;;;;4964452;28;20458;-77
2022/03/17 03:08:15;;;;;;;9.43;7.90;;;11.00;96.70;;;;;;4984718;28;20314;-77
2022/03/17 03:10:44;;;;;;;10.10;7.72;;;11.00;96.70;;;;;;4998262;28;20046;-78
2022/03/17 03:13:14;;;;;;;14.10;7.60;;;10.90;96.70;;;;;;4974434;28;20059;-77
2022/03/17 03:15:42;;;;;;;9.93;7.63;;;11.00;96.70;;;;;;4997340;28;20050;-76
2022/03/17 03:18:11;;;;;;;9.60;7.70;;;10.90;96.70;;;;;;4967143;28;20137;-77
2022/03/17 03:20:40;;;;;;;9.60;7.28;;;10.90;96.70;;;;;;4999619;28;20061;-77
2022/03/17 03:23:08;;;;;;;9.95;7.88;;;10.90;96.70;;;;;;4966636;28;20654;-77
2022/03/17 03:25:37;;;;;;;9.75;6.75;;;10.80;96.70;;;;;;4985788;28;20227;-77
2022/03/17 03:28:07;;;;;;;10.35;7.53;;;10.80;96.70;;;;;;5001945;28;20042;-83
2022/03/17 03:30:38;;;;;;;10.90;7.20;;;10.80;96.70;;;;;;5005328;28;20138;-84
2022/03/17 03:33:07;;;;;;;8.00;6.68;;;10.70;96.70;;;;;;4988969;28;20062;-84
2022/03/17 03:38:24;;;;;;;12.93;7.90;;;10.80;96.70;;;;;;4988530;28;20050;-84
2022/03/17 03:40:52;;;;;;;12.05;6.85;;;10.80;96.70;;;;;;4971199;28;20058;-84
2022/03/17 03:43:21;;;;;;;11.48;7.55;;;10.80;96.70;;;;;;4980229;28;20093;-84
2022/03/17 03:45:51;;;;;;;8.60;7.25;;;10.80;96.70;;;;;;4972367;28;20038;-82
2022/03/17 03:48:19;;;;;;;11.05;7.30;;;10.80;96.70;;;;;;4988225;28;20046;-83
2022/03/17 03:50:48;;;;;;;8.18;6.93;;;10.70;96.70;;;;;;4982242;28;20050;-84
2022/03/17 03:53:16;;;;;;;8.32;6.53;;;10.70;96.70;;;;;;4972193;28;20042;-84
2022/03/17 03:55:45;;;;;;;9.05;6.68;;;10.60;96.70;;;;;;4977291;28;20046;-84
2022/03/17 03:58:14;;;;;;;8.63;6.85;;;10.60;96.70;;;;;;4976857;28;20587;-84
2022/03/17 04:00:42;;;;;;;9.85;6.65;;;10.60;96.70;;;;;;4988920;28;20544;-85
2022/03/17 04:03:13;;;;;;;11.02;7.05;;;10.50;96.70;;;;;;4987550;28;20054;-84
2022/03/17 04:05:41;;;;;;;8.15;6.68;;;10.50;96.70;;;;;;4987238;28;20046;-84
2022/03/17 04:08:10;;;;;;;13.30;7.18;;;10.60;96.70;;;;;;4988412;28;20230;-82
2022/03/17 04:10:38;;;;;;;9.10;6.65;;;10.60;96.70;;;;;;5003345;28;20082;-84
2022/03/17 04:13:07;;;;;;;8.85;6.93;;;10.60;96.70;;;;;;4986983;28;20066;-84
2022/03/17 04:15:35;;;;;;;12.88;7.25;;;10.60;96.70;;;;;;5003306;28;20065;-82
2022/03/17 04:18:04;;;;;;;9.57;6.75;;;10.60;96.70;;;;;;4989263;28;20068;-85
2022/03/17 04:20:35;;;;;;;12.13;6.70;;;10.60;96.70;;;;;;4988347;28;20133;-83
2022/03/17 04:23:04;;;;;;;8.43;5.38;;;10.60;96.70;;;;;;4992698;28;20057;-84
2022/03/17 04:25:32;;;;;;;8.45;5.57;;;10.60;96.70;;;;;;5002902;28;20508;-84
2022/03/17 04:28:01;;;;;;;7.30;6.00;;;10.60;96.70;;;;;;5004618;28;20113;-83
2022/03/17 04:30:29;;;;;;;8.60;6.00;;;10.60;96.70;;;;;;4997057;28;20058;-84
2022/03/17 04:32:58;;;;;;;8.40;5.60;;;10.60;96.70;;;;;;4972329;28;20038;-84
2022/03/17 04:35:29;;;;;;;11.02;6.15;;;10.60;96.70;;;;;;4987086;28;20161;-83
2022/03/17 04:37:59;;;;;;;7.75;4.65;;;10.50;96.70;;;;;;4973488;28;20053;-84
2022/03/17 04:40:28;;;;;;;7.10;4.95;;;10.40;96.70;;;;;;4970334;28;20057;-84
2022/03/17 04:42:56;;;;;;;6.05;4.47;;;10.40;96.70;;;;;;4987051;28;20539;-84
2022/03/17 04:45:25;;;;;;;7.90;4.68;;;10.40;96.70;;;;;;4986649;28;20053;-84
2022/03/17 04:47:54;;;;;;;7.32;4.97;;;10.40;96.70;;;;;;5014492;28;20630;-84
2022/03/17 04:50:22;;;;;;;6.75;4.18;;;10.30;96.70;;;;;;4971191;28;20122;-82
2022/03/17 04:55:39;;;;;;;6.68;4.68;;;10.40;96.70;;;;;;4972746;28;20049;-82
2022/03/17 04:58:08;;;;;;;7.93;4.78;;;10.30;96.70;;;;;;4974814;28;20062;-82
2022/03/17 05:00:36;;;;;;;7.45;4.88;;;10.30;96.70;;;;;;5002261;28;20042;-83
2022/03/17 05:03:05;;;;;;;7.90;5.47;;;10.40;96.70;;;;;;4995566;28;20047;-84
2022/03/17 05:05:33;;;;;;;6.13;5.18;;;10.40;96.70;;;;;;4986475;28;20053;-83
2022/03/17 05:08:02;;;;;;;6.93;4.80;;;10.40;96.70;;;;;;4971790;28;20126;-77
2022/03/17 05:10:31;;;;;;;8.10;4.88;;;10.20;96.70;;;;;;4999622;28;20493;-77
2022/03/17 05:13:05;;;;;;;6.32;4.45;;;10.20;96.70;;;;;;4999680;28;20069;-77
2022/03/17 05:15:36;;;;;;;6.35;4.97;;;10.10;96.70;;;;;;4971641;28;20058;-77
2022/03/17 05:18:06;;;;;;;6.97;4.40;;;10.10;96.70;;;;;;5000044;28;20054;-77
2022/03/17 05:20:35;;;;;;;6.32;4.55;;;10.00;96.70;;;;;;4968483;28;20058;-77
2022/03/17 05:23:04;;;;;;;8.65;5.30;;;9.90;96.70;;;;;;5003163;28;20075;-77
2022/03/17 05:25:33;;;;;;;6.95;5.20;;;9.90;96.70;;;;;;4983009;28;20054;-77
2022/03/17 05:28:02;;;;;;;8.68;5.00;;;10.00;96.70;;;;;;4980122;28;20089;-77
2022/03/17 05:30:32;;;;;;;9.82;4.85;;;10.00;96.70;;;;;;4985041;28;20125;-77
2022/03/17 05:33:01;;;;;;;7.18;4.78;;;9.90;96.70;;;;;;4996941;28;20051;-77
2022/03/17 05:35:30;;;;;;;7.43;4.60;;;10.00;96.70;;;;;;4982424;28;20058;-77
2022/03/17 05:38:00;;;;;;;6.50;4.78;;;10.10;96.70;;;;;;4963900;28;20057;-78
2022/03/17 05:40:28;;;;;;;9.43;4.70;;;10.10;96.70;;;;;;5003733;28;20047;-77
2022/03/17 05:42:59;;;;;;;12.05;5.60;;;10.00;96.70;;;;;;4962417;28;20074;-77
2022/03/17 05:45:29;;;;;;;9.18;5.20;;;10.10;96.70;;;;;;4979317;28;20053;-78
2022/03/17 05:48:00;;;;;;;9.20;5.28;;;10.10;96.70;;;;;;4964283;28;20046;-77
2022/03/17 05:50:32;;;;;;;6.97;4.90;;;10.10;96.70;;;;;;4968983;28;20683;-77
2022/03/17 05:53:00;;;;;;;7.30;5.00;;;10.20;96.70;;;;;;4965425;28;20106;-77
2022/03/17 05:55:29;;;;;;;7.63;5.22;;;10.20;96.70;;;;;;4966225;28;20484;-77
2022/03/17 05:57:58;;;;;;;7.45;4.90;;;10.20;96.70;;;;;;4996352;28;20051;-78
2022/03/17 06:00:31;;;;;;;9.63;5.35;;;10.30;96.70;;;;;;4981069;28;20422;-77
2022/03/17 06:03:01;;;;;;;9.23;5.07;;;10.30;96.70;;;;;;4964634;28;20039;-76
2022/03/17 06:05:29;;;;;;;7.47;5.55;;;10.30;96.70;;;;;;4967097;28;20066;-77
2022/03/17 06:08:01;;;;;;;8.57;5.40;;;10.30;96.70;;;;;;4997136;28;20046;-76
2022/03/17 06:10:32;;;;;;;8.90;5.20;;;10.30;96.70;;;;;;4980197;28;20042;-76
2022/03/17 06:13:03;;;;;;;8.85;5.10;;;10.30;96.70;;;;;;4969451;28;20590;-77
2022/03/17 06:15:35;;;;;;;9.38;4.93;;;10.30;96.70;;;;;;4967194;28;20137;-84
2022/03/17 06:18:06;;;;;;;10.18;5.57;;;10.30;96.70;;;;;;4985819;28;20146;-82
2022/03/17 06:20:36;;;;;;;12.10;5.07;;;10.40;96.70;;;;;;4968455;28;20070;-82
2022/03/17 06:23:07;;;;;;;7.28;5.20;;;10.40;96.70;;;;;;4984580;28;20050;-84
2022/03/17 06:25:37;;;;;;;7.43;5.13;;;10.40;96.70;;;;;;4983984;28;20050;-83
2022/03/17 06:28:08;;;;;;;8.98;6.00;;;10.40;96.70;;;;;;4975015;28;20046;-84
2022/03/17 06:30:37;;;;;;;6.45;5.68;;;10.40;96.70;;;;;;4994250;28;20054;-82
2022/03/17 06:33:10;;;;;;;10.95;6.70;;;10.50;96.70;;;;;;5000215;28;20109;-84
2022/03/17 06:35:39;;;;;;;11.32;6.63;;;10.40;96.70;;;;;;4921680;28;1588716;-83
2022/03/17 06:38:08;;;;;;;8.48;5.97;;;10.50;96.70;;;;;;4991706;28;20046;-83
2022/03/17 06:40:37;;;;;;;12.60;6.70;;;10.60;96.70;;;;;;4987888;28;20130;-84
2022/03/17 06:43:06;;;;;;;10.73;6.65;;;10.60;96.70;;;;;;4989083;28;20496;-84
2022/03/17 06:45:35;;;;;;;9.38;6.88;;;10.60;96.70;;;;;;4971978;28;20054;-83
2022/03/17 06:48:04;;;;;;;11.52;6.78;;;10.50;96.70;;;;;;4988415;28;20057;-82
2022/03/17 06:50:34;;;;;;;9.85;6.53;;;10.60;96.70;;;;;;4979277;28;20049;-81
2022/03/17 06:53:03;;;;;;;9.43;6.65;;;10.60;96.70;;;;;;5005700;28;20500;-82
2022/03/17 06:55:33;;;;;;;11.48;6.68;;;10.60;96.70;;;;;;4985850;28;20046;-81
2022/03/17 06:58:02;;;;;;;13.30;7.43;;;10.70;96.70;;;;;;4989003;28;20050;-83
2022/03/17 07:00:31;;;;;;;9.32;6.47;;;10.70;96.70;;;;;;5007565;28;20058;-82
2022/03/17 07:03:00;;;;;;;12.38;7.30;;;10.70;96.70;;;;;;4990014;28;20047;-80
2022/03/17 07:05:28;;;;;;;11.80;6.97;;;10.80;96.70;;;;;;5007144;28;20042;-82
2022/03/17 07:07:59;;;;;;;11.32;6.25;;;10.90;96.70;;;;;;4986948;28;20042;-81
2022/03/17 07:10:33;;;;;;;16.33;7.18;;;10.90;96.70;;;;;;4979464;28;20053;-83
2022/03/17 07:13:01;;;;;;;11.07;6.38;;;10.80;96.70;;;;;;4989192;28;20121;-81
2022/03/17 07:15:30;;;;;;;10.48;6.30;;;10.90;96.70;;;;;;4976942;28;20038;-81
2022/03/17 07:17:58;;;;;;;9.70;6.53;;;10.90;96.70;;;;;;4982198;28;20049;-83
2022/03/17 07:20:27;;;;;;;10.60;6.85;;;11.00;96.70;;;;;;5007658;28;20038;-78
2022/03/17 07:22:56;;;;;;;11.10;6.47;;;11.10;96.70;;;;;;4987756;28;20082;-79
2022/03/17 07:25:27;;;;;;;11.25;6.60;;;11.10;96.70;;;;;;4988855;28;20113;-77
2022/03/17 07:27:58;;;;;;;10.35;6.78;;;11.10;96.70;;;;;;4965060;28;20035;-76
2022/03/17 07:30:27;;;;;;;12.90;6.22;;;11.10;96.70;;;;;;4998425;28;20050;-78
2022/03/17 07:32:58;;;;;;;7.80;6.35;;;11.20;96.70;;;;;;4985408;28;20042;-77
2022/03/17 07:35:27;;;;;;;10.25;7.00;;;11.30;96.70;;;;;;4987151;28;20050;-77
2022/03/17 07:37:58;;;;;;;8.02;6.20;;;11.30;96.70;;;;;;4986160;28;20081;-76
2022/03/17 07:40:28;;;;;;;9.50;6.50;;;11.40;96.70;;;;;;4985664;28;20544;-77
2022/03/17 07:42:57;;;;;;;12.73;6.68;;;11.50;96.70;;;;;;4979477;28;20689;-77
2022/03/17 07:45:26;;;;;;;10.75;7.03;;;11.60;96.70;;;;;;4990322;28;20054;-77
2022/03/17 07:48:27;;;;;;;10.95;6.75;;;11.70;96.70;;;;;;4974909;28;20073;-77
2022/03/17 07:51:08;;;;;;;12.35;7.07;;;11.70;96.70;;;;;;4982761;28;20081;-77
2022/03/17 07:53:39;;;;;;;11.32;7.47;;;11.90;96.70;;;;;;5019070;28;20050;-77
2022/03/17 07:56:12;;;;;;;11.32;7.95;;;12.00;96.70;;;;;;4986291;28;20050;-77
2022/03/17 07:58:41;;;;;;;11.50;7.07;;;12.10;96.70;;;;;;4988292;28;20076;-77
2022/03/17 08:01:10;;;;;;;11.77;7.65;;;12.20;96.70;;;;;;5001669;28;20047;-77
2022/03/17 08:03:40;;;;;;;13.15;7.90;;;12.30;96.70;;;;;;5000852;28;20043;-77
2022/03/17 08:06:12;;;;;;;14.82;7.22;;;12.40;96.70;;;;;;4980981;28;20050;-77
2022/03/17 08:08:43;;;;;;;15.77;8.00;;;12.50;96.70;;;;;;5003386;28;20060;-77
2022/03/17 08:11:14;;;;;;;12.68;7.97;;;12.60;96.70;;;;;;4999013;28;20050;-84
2022/03/17 08:13:43;;;;;;;11.65;7.63;;;12.70;96.70;;;;;;4995248;28;20129;-85
2022/03/17 08:16:12;;;;;;;12.25;8.00;;;12.80;96.70;;;;;;4999960;28;20050;-82
2022/03/17 08:18:42;;;;;;;10.88;7.25;;;12.90;96.70;;;;;;4989743;28;20058;-85
2022/03/17 08:21:12;;;;;;;12.90;7.22;;;12.90;96.70;;;;;;4991975;28;20054;-83
2022/03/17 08:23:41;;;;;;;13.68;8.13;;;13.00;96.70;;;;;;5030062;28;20123;-85
2022/03/17 08:26:10;;;;;;;10.88;7.40;;;13.10;96.70;;;;;;5006913;28;20050;-86
2022/03/17 08:28:40;;;;;;;11.15;7.72;;;13.20;96.70;;;;;;4995123;28;20042;-85
2022/03/17 08:31:09;;;;;;;11.48;7.55;;;13.30;96.70;;;;;;4989747;28;20101;-77
2022/03/17 08:33:39;;;;;;;9.80;7.45;;;13.40;96.70;;;;;;4970099;28;20066;-78
2022/03/17 08:36:08;;;;;;;9.77;7.60;;;13.50;96.70;;;;;;4984223;28;20051;-76
2022/03/17 08:38:36;;;;;;;12.35;8.00;;;13.60;96.70;;;;;;5003073;28;20042;-77
2022/03/17 08:41:05;;;;;;;10.55;8.05;;;13.70;96.70;;;;;;4986299;28;20046;-77
2022/03/17 08:43:33;;;;;;;16.52;7.97;;;13.80;96.70;;;;;;5004208;28;20042;-77
2022/03/17 08:51:38;;;;;;;;;;;14.10;96.70;;;;;;4989988;28;20050;-78
2022/03/17 08:54:06;;;;;;;11.20;7.38;;;14.30;96.70;;;;;;5004325;28;19925;-78
2022/03/17 08:56:36;;;;;;;10.70;5.28;;;14.40;96.70;;;;;;4986001;28;20128;-77
2022/03/17 08:59:06;;;;;;;8.85;4.38;;;14.50;96.70;;;;;;4970293;28;20050;-77
2022/03/17 09:01:39;;;;;;;8.20;4.07;;;14.60;96.70;;;;;;4987136;28;20512;-77
2022/03/17 09:04:08;;;;;;;5.63;4.15;;;14.80;96.70;;;;;;4989367;28;20046;-78
2022/03/17 09:06:39;;;;;;;8.50;4.10;;;14.90;96.70;;;;;;5016918;28;20134;-78
2022/03/17 09:09:08;;;;;;;5.90;4.07;;;15.00;96.70;;;;;;4977503;28;20136;-79
2022/03/17 09:11:37;;;;;;;4.97;4.05;;;15.10;96.70;;;;;;4991741;28;20069;-78
2022/03/17 09:14:08;;;;;;;7.93;4.45;;;15.30;96.70;;;;;;4984767;28;20394;-78
2022/03/17 09:16:38;;;;;;;5.05;3.88;;;15.30;96.70;;;;;;4988348;28;20042;-77
2022/03/17 09:19:07;;;;;;;6.97;4.10;;;15.50;96.70;;;;;;5020573;28;20070;-77
2022/03/17 09:21:36;;;;;;;5.43;4.15;;;15.60;96.70;;;;;;4977189;28;20436;-77
2022/03/17 09:24:05;;;;;;;5.78;3.55;;;15.60;96.70;;;;;;5000757;28;20050;-77
2022/03/17 09:26:34;;;;;;;8.00;3.85;;;15.70;96.70;;;;;;4973813;28;20050;-77
2022/03/17 09:29:03;;;;;;;7.05;3.63;;;15.80;96.70;;;;;;5002067;28;20472;-76
2022/03/17 09:31:32;;;;;;;6.40;3.88;;;15.90;96.70;;;;;;4955396;28;20525;-77
2022/03/17 09:34:03;;;;;;;6.45;4.00;;;16.00;96.70;;;;;;4985957;28;20049;-77
2022/03/17 09:36:32;;;;;;;10.63;4.03;;;16.10;96.70;;;;;;4986794;28;20069;-77
2022/03/17 09:41:48;;;;;;;6.60;3.45;;;16.10;96.70;;;;;;5005891;28;20381;-77
2022/03/17 09:44:16;;;;;;;5.22;3.45;;;16.20;96.70;;;;;;4968977;28;20038;-79
2022/03/17 09:46:47;;;;;;;7.50;3.50;;;16.40;96.70;;;;;;4987853;28;20140;-77
2022/03/17 09:49:19;;;;;;;9.57;3.88;;;16.50;96.70;;;;;;5004870;28;20046;-84
2022/03/17 09:51:49;;;;;;;9.15;3.78;;;16.70;96.70;;;;;;5001352;28;20453;-84
2022/03/17 09:54:17;;;;;;;9.23;3.83;;;16.70;96.70;;;;;;5027237;28;20054;-85
2022/03/17 09:56:46;;;;;;;8.15;3.72;;;16.80;96.70;;;;;;4979160;28;20050;-84
2022/03/17 09:59:14;;;;;;;8.82;3.42;;;16.90;96.70;;;;;;5013485;28;20047;-85
2022/03/17 10:01:45;;;;;;;7.18;3.72;;;16.90;96.70;;;;;;4978862;28;20077;-83
2022/03/17 10:04:15;;;;;;;6.80;3.42;;;17.00;96.70;;;;;;4989186;28;20124;-83
2022/03/17 10:06:47;;;;;;;6.95;3.88;;;16.90;96.70;;;;;;4989613;28;20101;-85
2022/03/17 10:09:16;;;;;;;9.93;4.03;;;16.90;96.70;;;;;;4980870;28;20050;-83
2022/03/17 10:11:45;;;;;;;10.85;3.60;;;17.00;96.70;;;;;;4972653;28;20050;-83
2022/03/17 10:14:14;;;;;;;5.68;3.40;;;17.00;96.70;;;;;;4990291;28;20401;-83
2022/03/17 10:16:43;;;;;;;11.15;3.92;;;17.00;96.70;;;;;;4991699;28;20065;-85
2022/03/17 10:19:13;;;;;;;9.35;3.75;;;17.10;96.70;;;;;;5022043;28;20046;-83
2022/03/17 10:21:43;;;;;;;6.60;3.53;;;17.10;96.70;;;;;;4972782;28;20097;-83
2022/03/17 10:24:16;;;;;;;9.35;3.38;;;17.10;96.70;;;;;;4998252;28;20054;-85
2022/03/17 10:26:52;;;;;;;10.55;4.03;;;17.00;96.70;;;;;;4995455;28;20072;-86
2022/03/17 10:29:25;;;;;;;10.60;3.28;;;17.10;96.70;;;;;;5006980;28;20054;-86
2022/03/17 10:32:00;;;;;;;8.73;3.22;;;17.10;96.70;;;;;;4983456;28;20049;-84
2022/03/17 10:34:51;;;;;;;10.50;3.28;;;17.20;96.70;;;;;;5004910;28;20061;-86
2022/03/17 10:37:21;;;;;;;10.23;3.63;;;17.30;96.70;;;;;;4990703;28;20049;-86
2022/03/17 10:39:53;;;;;;;11.27;3.03;;;17.40;96.70;;;;;;5007997;28;20050;-85
2022/03/17 10:42:23;;;;;;;12.07;3.30;;;17.50;96.70;;;;;;5011625;28;20085;-86
2022/03/17 10:44:52;;;;;;;13.77;3.72;;;17.60;96.70;;;;;;5004420;28;20038;-86
2022/03/17 10:47:25;;;;;;;9.32;3.22;;;17.60;96.70;;;;;;4996475;28;20053;-86
2022/03/17 10:50:07;;;;;;;15.73;3.40;;;17.70;96.70;;;;;;5008528;28;20166;-86
2022/03/17 10:52:46;;;;;;;11.35;3.60;;;17.60;96.70;;;;;;5004266;28;20778;-84
2022/03/17 10:55:21;;;;;;;10.80;2.95;;;17.60;96.70;;;;;;5003219;28;20049;-85
2022/03/17 10:57:50;;;;;;;7.82;3.10;;;17.80;96.70;;;;;;4993816;28;20049;-86
2022/03/17 11:00:21;;;;;;;11.15;4.25;;;17.80;96.70;;;;;;4995947;28;20046;-86
2022/03/17 11:02:51;;;;;;;11.88;3.53;;;17.80;96.70;;;;;;5001294;28;20046;-86
2022/03/17 11:05:20;;;;;;;12.48;3.53;;;17.80;96.70;;;;;;4989272;28;20039;-86
2022/03/17 11:07:49;;;;;;;12.57;3.80;;;17.90;96.70;;;;;;5004577;28;20046;-87
2022/03/17 11:10:20;;;;;;;13.48;3.22;;;17.90;96.70;;;;;;4988904;28;20456;-85
2022/03/17 11:12:52;;;;;;;11.70;3.63;;;17.90;96.70;;;;;;4988541;28;20046;-87
2022/03/17 11:15:28;;;;;;;13.73;3.42;;;17.90;96.70;;;;;;4992694;28;20091;-85
2022/03/17 11:18:02;;;;;;;11.98;3.35;;;18.00;96.70;;;;;;4987586;28;20145;-86
2022/03/17 11:20:31;;;;;;;11.52;3.45;;;17.90;96.70;;;;;;5003798;28;20061;-85
2022/03/17 11:23:11;;;;;;;9.63;3.45;;;17.90;96.70;;;;;;5004194;28;20046;-85
2022/03/17 11:25:45;;;;;;;9.15;3.13;;;17.90;96.70;;;;;;5004917;28;20057;-85
2022/03/17 11:28:15;;;;;;;8.57;3.20;;;17.90;96.70;;;;;;5020714;28;20054;-86
2022/03/17 11:30:46;;;;;;;10.23;3.17;;;18.00;96.70;;;;;;4971920;28;20054;-86
2022/03/17 11:33:26;;;;;;;13.07;3.60;;;18.20;96.70;;;;;;4988927;28;20093;-85
2022/03/17 11:35:59;;;;;;;12.00;3.60;;;18.40;96.70;;;;;;4968720;28;20146;-86
2022/03/17 11:38:30;;;;;;;12.55;3.33;;;18.60;96.70;;;;;;4984081;28;20085;-86
2022/03/17 11:41:14;;;;;;;14.90;3.55;;;18.80;96.70;;;;;;5003011;28;20051;-87
2022/03/17 11:44:00;;;;;;;9.38;2.83;;;19.00;96.70;;;;;;4989498;28;20419;-85
2022/03/17 11:46:42;;;;;;;11.50;3.53;;;19.00;96.70;;;;;;5004136;28;20046;-84
2022/03/17 11:49:28;;;;;;;13.77;3.88;;;18.80;96.70;;;;;;5006021;28;20145;-85
2022/03/17 11:51:59;;;;;;;14.45;3.83;;;18.80;96.70;;;;;;4987160;28;20424;-85
2022/03/17 11:54:30;;;;;;;18.27;3.85;;;18.70;96.70;;;;;;4978209;28;20042;-85
2022/03/17 11:57:01;;;;;;;17.13;4.63;;;18.70;96.70;;;;;;5003639;28;20499;-85
2022/03/17 11:59:46;;;;;;;16.63;3.78;;;18.80;96.70;;;;;;4974328;28;20043;-84
2022/03/17 12:02:16;;;;;;;14.75;3.42;;;18.70;96.70;;;;;;4971619;28;20097;-86
2022/03/17 12:04:48;;;;;;;15.27;4.35;;;18.70;96.70;;;;;;4971070;28;20051;-87
2022/03/17 12:07:18;;;;;;;17.00;4.28;;;18.80;96.70;;;;;;4982606;28;20509;-86
2022/03/17 12:09:47;;;;;;;16.80;3.88;;;18.90;96.70;;;;;;4987532;28;20047;-78
2022/03/17 12:12:25;;;;;;;19.80;4.90;;;19.00;96.70;;;;;;4969824;28;20043;-80
2022/03/17 12:14:55;;;;;;;17.83;4.40;;;18.90;96.70;;;;;;4995182;28;20048;-81
2022/03/17 12:17:25;;;;;;;13.00;3.78;;;19.00;96.70;;;;;;5007082;28;20551;-88
2022/03/17 12:20:08;;;;;;;17.92;4.47;;;19.00;96.70;;;;;;4991755;28;20226;-87
2022/03/17 12:22:43;;;;;;;19.10;4.20;;;19.00;96.70;;;;;;5011207;28;20042;-88
2022/03/17 12:25:20;;;;;;;15.65;4.50;;;18.90;96.70;;;;;;4983376;28;20051;-89
2022/03/17 12:27:53;;;;;;;15.65;4.10;;;18.90;96.70;;;;;;4973618;28;20050;-81
2022/03/17 12:30:24;;;;;;;12.57;4.07;;;18.90;96.70;;;;;;4971937;28;20057;-81
2022/03/17 12:32:54;;;;;;;13.10;4.05;;;18.80;96.70;;;;;;4990129;28;20578;-81
2022/03/17 12:35:24;;;;;;;19.90;4.97;;;18.70;96.70;;;;;;4998621;28;20058;-79
2022/03/17 12:37:59;;;;;;;18.80;5.38;;;18.70;96.70;;;;;;4974155;28;20053;-80
2022/03/17 12:40:32;;;;;;;17.02;4.57;;;18.60;96.70;;;;;;4998059;28;20078;-79
2022/03/17 12:43:12;;;;;;;12.38;4.05;;;18.60;96.70;;;;;;5005481;28;20078;-80
2022/03/17 12:45:42;;;;;;;19.23;4.57;;;18.60;96.70;;;;;;4966838;28;20043;-80
2022/03/17 12:48:11;;;;;;;13.40;4.82;;;18.60;96.70;;;;;;5008099;28;20067;-86
2022/03/17 12:50:39;;;;;;;17.42;4.80;;;18.60;96.70;;;;;;4990629;28;20560;-88
2022/03/17 12:53:09;;;;;;;18.30;5.10;;;18.60;96.70;;;;;;4971990;28;20049;-86
2022/03/17 12:55:38;;;;;;;17.58;5.88;;;18.60;96.70;;;;;;4971277;28;20082;-87
2022/03/17 12:58:15;;;;;;;14.80;4.82;;;18.60;96.70;;;;;;5004177;28;20057;-87
2022/03/17 13:00:44;;;;;;;17.52;4.78;;;18.60;96.70;;;;;;4996838;28;20068;-85
2022/03/17 13:03:17;;;;;;;13.13;4.68;;;18.50;96.70;;;;;;4987463;28;20283;-88
2022/03/17 13:08:38;;;;;;;12.43;5.10;;;18.60;96.70;;;;;;5005807;28;20054;-87
2022/03/17 13:14:21;;;;;;;19.35;5.25;;;18.50;96.70;;;;;;4972122;28;20039;-88
2022/03/17 13:16:59;;;;;;;17.02;5.07;;;18.50;96.70;;;;;;5002894;28;20067;-85
2022/03/17 13:19:28;;;;;;;18.73;6.30;;;18.50;96.70;;;;;;4987698;28;20049;-88
2022/03/17 13:22:04;;;;;;;21.58;5.20;;;18.50;96.70;;;;;;4987769;28;20149;-78